Time;durP1;ratioP1;P1;durP2;ratioP2;P2;SDS_P1;SDS_P2;PMS_P1;PMS_P2;Temp;Humidity;BMP_temperature;BMP_pressure;BME280_temperature;BME280_humidity;BME280_pressure;Samples;Min_cycle;Max_cycle;Signal;HPM_P1;HPM_P2
2023/10/12 00:02:04;;;;;;;5.13;3.35;;;;;;;22.51;53.64;100708.50;10255778;28;96961;-80
2023/10/12 00:07:15;;;;;;;4.78;3.10;;;;;;;22.58;53.64;100700.81;10254376;28;97097;-80
2023/10/12 00:12:21;;;;;;;5.25;3.47;;;;;;;22.58;53.66;100696.28;10253954;28;99216;-79
2023/10/12 00:17:26;;;;;;;7.00;3.47;;;;;;;22.58;53.50;100690.94;10253467;28;97081;-79
2023/10/12 00:22:32;;;;;;;3.80;3.17;;;;;;;22.49;53.79;100689.00;10254975;28;96773;-80
2023/10/12 00:27:38;;;;;;;5.45;2.95;;;;;;;22.27;54.06;100682.81;10253228;28;96631;-81
2023/10/12 00:32:44;;;;;;;3.33;2.90;;;;;;;22.06;54.21;100679.19;10254168;28;97576;-81
2023/10/12 00:37:49;;;;;;;5.50;3.50;;;;;;;21.89;54.49;100669.78;10253817;28;96675;-81
2023/10/12 00:42:55;;;;;;;5.10;3.15;;;;;;;21.81;54.68;100682.97;10284210;28;96796;-81
2023/10/12 00:48:03;;;;;;;4.85;3.22;;;;;;;21.81;54.03;100669.56;10294453;28;97335;-80
2023/10/12 00:53:22;;;;;;;4.95;2.88;;;;;;;21.87;53.54;100676.22;10254272;28;97122;-80
2023/10/12 00:58:26;;;;;;;4.30;3.03;;;;;;;21.72;54.76;100686.34;10253740;28;97234;-81
2023/10/12 01:03:31;;;;;;;4.80;3.33;;;;;;;21.65;55.15;100684.25;10253009;28;96798;-80
2023/10/12 01:08:36;;;;;;;4.78;3.20;;;;;;;21.72;54.96;100691.72;10252204;28;96707;-80
2023/10/12 01:13:43;;;;;;;5.72;3.28;;;;;;;21.64;55.05;100685.25;10253134;28;96662;-80
2023/10/12 01:18:46;;;;;;;4.00;2.80;;;;;;;21.57;55.33;100690.25;10256691;28;96778;-80
2023/10/12 01:23:51;;;;;;;3.70;2.70;;;;;;;21.55;55.35;100691.31;10259490;28;97204;-80
2023/10/12 01:28:56;;;;;;;4.05;3.05;;;;;;;21.68;54.58;100700.09;10260122;28;96922;-80
2023/10/12 01:33:59;;;;;;;5.43;3.10;;;;;;;21.81;53.92;100701.72;10291392;28;97162;-78
2023/10/12 01:39:12;;;;;;;5.53;3.67;;;;;;;21.84;53.86;100696.09;10300433;28;96664;-80
2023/10/12 01:44:18;;;;;;;5.13;3.38;;;;;;;21.80;53.75;100700.00;10300219;28;96850;-80
2023/10/12 01:49:22;;;;;;;4.63;3.38;;;;;;;21.79;53.97;100694.75;10278000;28;97296;-80
2023/10/12 01:54:29;;;;;;;4.15;3.10;;;;;;;21.69;54.17;100694.63;10259046;28;97004;-80
2023/10/12 01:59:34;;;;;;;5.30;3.05;;;;;;;21.45;54.87;100704.56;10257955;28;96912;-80
2023/10/12 02:04:40;;;;;;;;;;;;;;;21.23;56.81;100705.38;10259407;28;96654;-80
2023/10/12 02:09:45;;;;;;;5.50;3.33;;;;;;;21.22;55.12;100697.47;10258666;28;97300;-80
2023/10/12 02:14:48;;;;;;;5.15;3.22;;;;;;;21.13;55.63;100696.31;10258180;28;96808;-80
2023/10/12 02:19:53;;;;;;;4.05;2.95;;;;;;;21.28;54.92;100696.97;10258029;28;96804;-80
2023/10/12 02:25:17;;;;;;;3.58;2.85;;;;;;;21.18;55.21;100698.66;10258837;28;96859;-79
2023/10/12 02:30:27;;;;;;;3.72;3.00;;;;;;;21.24;55.16;100691.00;10257495;28;96679;-80
2023/10/12 02:35:36;;;;;;;4.47;3.20;;;;;;;21.12;55.19;100681.19;10258688;28;96776;-80
2023/10/12 02:40:45;;;;;;;4.32;3.30;;;;;;;21.07;55.30;100679.88;10278168;28;96686;-80
2023/10/12 02:45:52;;;;;;;4.78;3.22;;;;;;;20.99;55.28;100671.53;10292832;28;96614;-80
2023/10/12 02:50:58;;;;;;;6.15;3.50;;;;;;;20.88;55.44;100666.16;10255733;28;97097;-80
2023/10/12 02:56:05;;;;;;;5.15;3.50;;;;;;;20.68;56.17;100664.97;10257570;28;96709;-80
2023/10/12 03:01:13;;;;;;;5.28;3.17;;;;;;;20.57;56.64;100666.75;10256781;28;96670;-80
2023/10/12 03:06:23;;;;;;;4.53;3.22;;;;;;;20.37;57.76;100654.84;10256805;28;97071;-80
2023/10/12 03:11:29;;;;;;;3.75;2.90;;;;;;;20.31;57.66;100656.16;10256295;28;96998;-80
2023/10/12 03:16:34;;;;;;;5.03;3.33;;;;;;;20.14;58.25;100656.50;10256900;28;96930;-80
2023/10/12 03:21:38;;;;;;;3.45;2.50;;;;;;;20.14;58.05;100656.50;10256241;28;96700;-80
2023/10/12 03:26:48;;;;;;;5.15;3.05;;;;;;;20.15;57.78;100654.69;10256570;28;96915;-79
2023/10/12 03:31:57;;;;;;;4.82;2.95;;;;;;;20.18;57.68;100649.97;10278730;28;97006;-79
2023/10/12 03:37:03;;;;;;;5.40;3.13;;;;;;;20.23;57.50;100663.00;10296244;28;96839;-78
2023/10/12 03:42:41;;;;;;;4.40;3.35;;;;;;;20.21;57.57;100654.22;10293581;28;96728;-78
2023/10/12 03:48:03;;;;;;;4.78;3.30;;;;;;;20.33;57.34;100650.69;10275934;28;96926;-79
2023/10/12 03:53:05;;;;;;;3.70;2.63;;;;;;;20.08;58.09;100648.91;10216613;28;97205;-79
2023/10/12 03:58:15;;;;;;;4.72;3.22;;;;;;;19.97;59.13;100646.19;10255010;28;96936;-80
2023/10/12 04:03:33;;;;;;;5.13;3.10;;;;;;;19.85;59.16;100647.06;10224185;28;96655;-80
2023/10/12 04:08:45;;;;;;;5.00;3.15;;;;;;;19.80;59.07;100643.00;10255173;28;96730;-80
2023/10/12 04:14:09;;;;;;;5.05;2.65;;;;;;;19.72;58.36;100629.34;10254370;28;97191;-79
2023/10/12 04:19:29;;;;;;;4.22;3.00;;;;;;;19.72;58.01;100637.38;10255468;28;97073;-80
2023/10/12 04:24:43;;;;;;;3.92;2.85;;;;;;;19.87;57.07;100636.25;10254829;28;96859;-80
2023/10/12 04:29:57;;;;;;;5.07;2.72;;;;;;;19.98;57.07;100639.84;10254303;28;96600;-80
2023/10/12 04:35:08;;;;;;;4.60;3.05;;;;;;;19.97;57.13;100635.50;10253213;28;97170;-80
2023/10/12 04:40:32;;;;;;;3.85;3.20;;;;;;;19.92;58.12;100636.78;10279447;28;97713;-80
2023/10/12 04:46:05;;;;;;;5.22;3.47;;;;;;;19.63;60.30;100643.34;10263730;28;96807;-80
2023/10/12 04:51:18;;;;;;;3.40;2.85;;;;;;;19.51;60.61;100644.22;10253396;28;97025;-80
2023/10/12 04:56:23;;;;;;;4.80;3.50;;;;;;;19.54;60.14;100647.53;10233215;28;97112;-80
2023/10/12 05:01:40;;;;;;;3.97;2.85;;;;;;;19.69;59.23;100657.09;10253307;28;97530;-80
2023/10/12 05:07:20;;;;;;;6.35;3.30;;;;;;;19.74;58.86;100644.28;10253249;28;97562;-79
2023/10/12 05:12:11;;;;;;;6.10;3.22;;;;;;;19.77;58.25;100651.25;10253271;28;96984;-79
2023/10/12 05:17:16;;;;;;;4.53;3.17;;;;;;;20.05;56.92;100653.63;10252987;28;97007;-80
2023/10/12 05:22:19;;;;;;;4.20;2.85;;;;;;;19.63;59.41;100649.50;10252700;28;96974;-80
2023/10/12 05:27:26;;;;;;;4.22;2.85;;;;;;;19.52;59.99;100649.44;10251702;28;98449;-80
2023/10/12 05:32:42;;;;;;;5.43;3.17;;;;;;;19.57;59.87;100652.63;10252988;28;97127;-80
2023/10/12 05:37:51;;;;;;;5.82;3.28;;;;;;;19.43;60.56;100655.41;10252567;28;97334;-80
2023/10/12 05:42:54;;;;;;;4.78;3.45;;;;;;;19.20;61.87;100662.31;10251979;28;96752;-80
2023/10/12 05:47:59;;;;;;;6.95;3.30;;;;;;;19.21;61.46;100655.16;10275821;28;96816;-80
2023/10/12 05:53:07;;;;;;;4.15;2.92;;;;;;;19.20;61.83;100669.44;10271556;28;97670;-80
2023/10/12 05:58:11;;;;;;;5.78;3.33;;;;;;;19.22;61.86;100680.88;10252136;28;96623;-80
2023/10/12 06:03:21;;;;;;;;;;;;;;;19.17;62.65;100680.34;10253563;28;97420;-80
2023/10/12 06:08:26;;;;;;;4.35;3.05;;;;;;;19.29;61.44;100685.69;10259019;28;97054;-80
2023/10/12 06:13:32;;;;;;;5.63;3.55;;;;;;;19.32;60.86;100681.94;10257466;28;96824;-80
2023/10/12 06:18:37;;;;;;;4.75;3.42;;;;;;;19.47;60.39;100674.75;10256933;28;97645;-80
2023/10/12 06:23:43;;;;;;;4.72;3.42;;;;;;;19.42;60.65;100683.06;10258450;28;97038;-80
2023/10/12 06:28:49;;;;;;;6.75;3.47;;;;;;;19.44;60.34;100678.47;10258202;28;97335;-80
2023/10/12 06:33:55;;;;;;;5.75;3.22;;;;;;;19.38;60.41;100678.88;10257591;28;96766;-80
2023/10/12 06:40:07;;;;;;;5.68;4.10;;;;;;;19.55;59.64;100685.72;10281216;28;96948;-80
2023/10/12 06:44:40;;;;;;;5.38;3.40;;;;;;;19.35;60.93;100687.09;10291432;22;98664;-80
2023/10/12 06:49:51;;;;;;;5.13;3.53;;;;;;;19.37;60.89;100701.19;10275983;28;96798;-81
2023/10/12 06:54:59;;;;;;;5.30;3.67;;;;;;;19.36;61.15;100702.13;10274527;28;96878;-80
2023/10/12 07:05:38;;;;;;;6.60;3.28;;;;;;;19.54;60.73;100708.06;10257049;28;96673;-80
2023/10/12 07:10:51;;;;;;;;;;;;;;;19.79;58.91;100711.56;10262667;28;97118;-80
2023/10/12 07:15:54;;;;;;;4.65;3.17;;;;;;;19.96;58.99;100719.25;10297113;28;96746;-80
2023/10/12 07:20:59;;;;;;;5.95;3.60;;;;;;;20.38;56.94;100717.19;10297275;28;97000;-80
2023/10/12 07:26:12;;;;;;;4.18;3.28;;;;;;;20.76;56.11;100721.41;10296626;28;96884;-80
2023/10/12 07:31:34;;;;;;;6.72;3.60;;;;;;;20.95;55.28;100731.59;10297116;28;97978;-80
2023/10/12 07:36:52;;;;;;;5.47;3.67;;;;;;;21.28;54.17;100731.78;10296199;28;97188;-80
2023/10/12 07:41:59;;;;;;;4.38;3.28;;;;;;;22.01;52.86;100745.72;10295430;28;96774;-80
2023/10/12 07:47:04;;;;;;;4.65;3.22;;;;;;;22.89;50.99;100742.94;10297377;28;97036;-80
2023/10/12 07:52:21;;;;;;;3.95;3.08;;;;;;;22.96;50.31;100736.09;10295588;28;97360;-81
2023/10/12 07:57:30;;;;;;;5.32;3.58;;;;;;;22.82;50.25;100735.56;10295640;28;97340;-80
2023/10/12 08:03:05;;;;;;;4.22;3.15;;;;;;;22.80;49.87;100726.75;10295167;28;96642;-81
2023/10/12 08:08:16;;;;;;;5.90;3.70;;;;;;;23.11;49.11;100723.22;10295457;28;97644;-80
2023/10/12 08:13:26;;;;;;;5.68;3.92;;;;;;;23.60;48.06;100710.91;10295288;28;96611;-81
2023/10/12 08:23:50;;;;;;;4.43;3.10;;;;;;;25.04;44.06;100722.19;10292789;28;97669;-81
2023/10/12 08:28:55;;;;;;;4.93;3.30;;;;;;;24.45;45.02;100719.50;10294316;28;97012;-80
2023/10/12 08:34:13;;;;;;;5.30;3.40;;;;;;;23.96;45.62;100708.69;10294653;28;96681;-80
2023/10/12 08:39:18;;;;;;;4.68;3.28;;;;;;;23.87;45.35;100713.03;10300964;28;96797;-80
2023/10/12 08:44:34;;;;;;;5.70;2.97;;;;;;;23.85;45.85;100712.31;10294169;28;97147;-80
2023/10/12 08:49:52;;;;;;;5.00;2.95;;;;;;;23.69;45.74;100706.56;10294585;28;96723;-80
2023/10/12 08:55:07;;;;;;;3.65;2.90;;;;;;;24.05;45.06;100702.50;10293467;28;96708;-81
2023/10/12 09:00:24;;;;;;;5.80;3.28;;;;;;;24.22;45.35;100694.63;10293772;28;96698;-80
2023/10/12 09:05:31;;;;;;;4.40;3.22;;;;;;;24.41;45.31;100699.28;10294475;28;96920;-80
2023/10/12 09:11:01;;;;;;;5.47;3.17;;;;;;;24.79;44.25;100696.66;10294208;28;96656;-81
2023/10/12 09:16:07;;;;;;;4.38;3.03;;;;;;;25.04;43.75;100697.94;10293487;28;96604;-81
2023/10/12 09:21:27;;;;;;;4.15;3.13;;;;;;;25.37;43.30;100692.13;10293166;28;96753;-81
2023/10/12 09:26:34;;;;;;;4.32;3.10;;;;;;;26.04;42.27;100689.28;10293989;28;96632;-81
2023/10/12 09:31:57;;;;;;;4.30;3.10;;;;;;;27.36;39.84;100688.53;10293542;28;97246;-81
2023/10/12 09:37:06;;;;;;;4.13;2.60;;;;;;;28.68;35.93;100689.78;10293239;28;97970;-81
2023/10/12 09:42:24;;;;;;;5.32;3.13;;;;;;;29.71;33.82;100695.50;10299194;28;96826;-81
2023/10/12 09:47:43;;;;;;;3.10;2.78;;;;;;;30.97;33.61;100694.31;10335027;28;97837;-81
2023/10/12 09:52:57;;;;;;;4.57;3.20;;;;;;;32.02;31.58;100704.25;10340979;28;97121;-82
2023/10/12 09:58:14;;;;;;;3.50;2.83;;;;;;;33.01;30.98;100702.66;10340857;28;97366;-82
2023/10/12 10:03:19;;;;;;;4.15;3.10;;;;;;;34.20;29.82;100708.91;10340487;28;96800;-82
2023/10/12 10:08:26;;;;;;;5.80;2.80;;;;;;;34.31;29.24;100688.34;10340532;28;96771;-82
2023/10/12 10:13:53;;;;;;;3.35;2.75;;;;;;;34.08;28.15;100682.34;10340287;28;96886;-82
2023/10/12 10:19:10;;;;;;;4.82;2.97;;;;;;;33.56;28.44;100679.22;10339472;28;96668;-82
2023/10/12 10:24:19;;;;;;;3.90;2.67;;;;;;;33.81;27.96;100672.28;10340665;28;97323;-82
2023/10/12 10:29:40;;;;;;;3.90;2.85;;;;;;;33.70;27.40;100667.38;10340348;28;97037;-82
2023/10/12 10:34:44;;;;;;;4.20;3.05;;;;;;;33.25;27.69;100655.88;10264877;28;97203;-82
2023/10/12 10:39:47;;;;;;;4.60;3.30;;;;;;;33.26;27.53;100652.09;10297339;28;97608;-83
2023/10/12 10:44:54;;;;;;;3.65;2.90;;;;;;;33.41;27.60;100652.06;10297405;28;96851;-82
2023/10/12 10:50:00;;;;;;;4.35;3.05;;;;;;;33.84;26.75;100650.03;10297032;28;96712;-82
2023/10/12 10:55:10;;;;;;;3.90;2.97;;;;;;;34.35;26.42;100640.47;10298240;28;96975;-82
2023/10/12 11:00:18;;;;;;;3.70;3.20;;;;;;;34.16;25.70;100633.03;10297645;28;97010;-82
2023/10/12 11:05:28;;;;;;;4.32;2.55;;;;;;;33.97;26.23;100623.66;10297550;28;96994;-82
2023/10/12 11:11:14;;;;;;;4.47;3.00;;;;;;;33.91;25.42;100623.59;10297741;28;97503;-82
2023/10/12 11:16:04;;;;;;;4.55;2.92;;;;;;;35.35;24.60;100620.28;10297439;28;97316;-82
2023/10/12 11:21:11;;;;;;;4.50;2.78;;;;;;;35.30;24.74;100614.59;10296932;28;97487;-82
2023/10/12 11:26:17;;;;;;;4.45;2.78;;;;;;;35.77;24.16;100597.06;10306285;28;97053;-82
2023/10/12 11:31:30;;;;;;;5.03;3.08;;;;;;;35.19;24.04;100600.69;10305541;28;96874;-82
2023/10/12 11:36:38;;;;;;;3.42;2.58;;;;;;;35.02;23.58;100594.81;10296269;28;96585;-83
2023/10/12 11:41:43;;;;;;;4.65;2.63;;;;;;;35.28;23.43;100586.59;10295501;28;97029;-82
2023/10/12 11:46:49;;;;;;;5.18;3.03;;;;;;;35.51;22.94;100573.28;10296889;28;97268;-82
2023/10/12 11:51:53;;;;;;;3.33;2.40;;;;;;;35.85;23.17;100566.69;10295700;28;97343;-83
2023/10/12 11:56:58;;;;;;;3.83;2.63;;;;;;;35.65;23.14;100563.19;10295721;28;96644;-83
2023/10/12 12:02:09;;;;;;;4.53;2.30;;;;;;;36.34;22.25;100557.84;10295049;28;97778;-82
2023/10/12 12:07:13;;;;;;;3.17;2.55;;;;;;;36.06;22.56;100541.75;10296473;28;96689;-83
2023/10/12 12:12:20;;;;;;;3.33;2.65;;;;;;;36.12;22.70;100542.78;10295451;28;96673;-83
2023/10/12 12:17:26;;;;;;;3.15;2.45;;;;;;;36.34;22.57;100527.69;10295749;28;96618;-83
2023/10/12 12:22:41;;;;;;;2.85;2.42;;;;;;;36.74;21.92;100518.97;10294229;28;97342;-82
2023/10/12 12:27:48;;;;;;;3.20;2.47;;;;;;;37.51;20.95;100499.25;10294925;28;97234;-83
2023/10/12 12:33:00;;;;;;;3.30;2.60;;;;;;;36.74;21.07;100504.44;10294486;28;97216;-83
2023/10/12 12:38:17;;;;;;;3.08;2.20;;;;;;;36.38;22.08;100490.50;10335686;28;96808;-83
2023/10/12 12:43:22;;;;;;;4.55;2.72;;;;;;;36.35;21.35;100489.06;10334509;28;96810;-83
2023/10/12 12:48:26;;;;;;;2.90;2.38;;;;;;;36.81;21.57;100482.41;10335512;28;97079;-82
2023/10/12 12:53:33;;;;;;;4.32;2.70;;;;;;;37.27;20.90;100480.06;10334279;28;97335;-82
2023/10/12 12:58:37;;;;;;;3.13;2.20;;;;;;;37.31;19.79;100462.94;10335990;28;96587;-83
2023/10/12 13:03:43;;;;;;;2.67;1.90;;;;;;;37.61;19.88;100466.59;10334940;28;98173;-81
2023/10/12 13:08:50;;;;;;;2.38;1.75;;;;;;;39.02;18.38;100453.06;10334006;28;97790;-82
2023/10/12 13:13:54;;;;;;;2.30;1.80;;;;;;;39.75;17.44;100452.25;10333515;28;96990;-82
2023/10/12 13:19:01;;;;;;;1.75;1.40;;;;;;;39.84;17.32;100449.94;10334747;28;96686;-82
2023/10/12 13:24:06;;;;;;;2.35;1.73;;;;;;;39.98;17.54;100458.75;10307755;28;96719;-81
2023/10/12 13:29:12;;;;;;;2.35;1.60;;;;;;;40.16;17.05;100444.75;10334283;28;96956;-82
2023/10/12 13:34:17;;;;;;;1.67;1.35;;;;;;;39.31;16.16;100444.66;10296895;28;96770;-83
2023/10/12 13:39:25;;;;;;;2.38;1.80;;;;;;;38.53;15.24;100430.41;10293016;28;96670;-82
2023/10/12 13:44:30;;;;;;;1.60;1.50;;;;;;;39.22;15.74;100437.03;10293164;28;98178;-81
2023/10/12 13:49:37;;;;;;;2.40;1.70;;;;;;;38.97;15.72;100430.91;10293665;28;96685;-82
2023/10/12 13:54:45;;;;;;;2.95;1.40;;;;;;;38.58;16.00;100426.91;10292935;28;96727;-82
2023/10/12 13:59:53;;;;;;;2.53;1.40;;;;;;;37.68;16.21;100434.38;10293160;28;97349;-82
2023/10/12 14:04:58;;;;;;;1.80;1.45;;;;;;;37.52;16.35;100425.97;10291573;28;96590;-83
2023/10/12 14:10:05;;;;;;;2.20;1.65;;;;;;;37.86;16.33;100424.47;10293111;28;97115;-81
2023/10/12 14:15:09;;;;;;;2.10;1.35;;;;;;;38.08;16.12;100412.69;10292835;28;97124;-83
2023/10/12 14:20:17;;;;;;;2.30;1.70;;;;;;;38.31;15.75;100420.19;10292237;28;97285;-82
2023/10/12 14:25:27;;;;;;;3.72;1.60;;;;;;;38.53;16.09;100416.66;10293504;28;96819;-81
2023/10/12 14:30:31;;;;;;;1.70;1.55;;;;;;;38.60;16.50;100413.78;10298580;28;96723;-81
2023/10/12 14:35:37;;;;;;;1.70;1.35;;;;;;;37.82;16.65;100412.28;10298984;28;97408;-82
2023/10/12 14:40:42;;;;;;;1.65;1.50;;;;;;;37.20;16.25;100407.94;10298863;28;96711;-83
2023/10/12 14:45:55;;;;;;;2.47;1.50;;;;;;;37.44;16.24;100409.78;10298312;28;96631;-81
2023/10/12 14:51:07;;;;;;;2.50;1.80;;;;;;;36.93;15.96;100412.03;10298577;28;96873;-82
2023/10/12 14:56:14;;;;;;;2.83;1.23;;;;;;;37.49;16.28;100410.75;10296333;28;98712;-81
2023/10/12 15:01:20;;;;;;;3.05;1.60;;;;;;;37.16;16.92;100401.25;10297648;28;96759;-82
2023/10/12 15:06:24;;;;;;;1.50;1.33;;;;;;;36.79;17.41;100403.09;10298140;28;97345;-81
2023/10/12 15:11:30;;;;;;;2.92;1.50;;;;;;;36.86;17.95;100392.88;10297073;28;97786;-81
2023/10/12 15:16:34;;;;;;;2.08;1.63;;;;;;;35.78;18.04;100396.03;10297109;28;96847;-82
2023/10/12 15:21:39;;;;;;;2.20;1.58;;;;;;;34.59;19.08;100389.22;10296934;28;96727;-81
2023/10/12 15:26:43;;;;;;;3.05;1.60;;;;;;;33.73;20.19;100393.97;10327180;28;97137;-80
2023/10/12 15:31:47;;;;;;;1.85;1.55;;;;;;;32.91;20.74;100391.28;10321371;28;96945;-81
2023/10/12 15:36:52;;;;;;;3.92;1.70;;;;;;;32.59;22.24;100388.28;10296369;28;97269;-80
2023/10/12 15:41:55;;;;;;;3.38;1.40;;;;;;;32.43;22.85;100387.53;10296841;28;97106;-80
2023/10/12 15:46:59;;;;;;;1.80;1.40;;;;;;;32.43;23.01;100397.59;10295050;28;96937;-80
2023/10/12 15:52:04;;;;;;;2.35;1.85;;;;;;;32.25;22.95;100395.34;10296076;28;96756;-79
2023/10/12 15:57:11;;;;;;;3.40;1.80;;;;;;;32.25;23.57;100391.75;10296299;28;97318;-80
2023/10/12 16:02:16;;;;;;;2.40;1.65;;;;;;;32.10;23.37;100393.72;10296252;28;97007;-80
2023/10/12 16:07:21;;;;;;;2.60;1.80;;;;;;;32.02;23.84;100391.13;10295527;28;97311;-80
2023/10/12 16:12:26;;;;;;;3.10;1.88;;;;;;;31.40;25.57;100381.81;10295612;28;97230;-81
2023/10/12 16:17:30;;;;;;;3.30;2.10;;;;;;;31.21;26.15;100392.25;10323775;28;97311;-81
2023/10/12 16:22:41;;;;;;;3.13;2.05;;;;;;;30.78;27.10;100403.97;10337292;28;97096;-81
2023/10/12 16:27:46;;;;;;;3.83;2.50;;;;;;;30.68;27.18;100397.94;10336496;28;96756;-81
2023/10/12 16:32:54;;;;;;;4.22;2.45;;;;;;;30.55;27.32;100408.59;10310808;28;96994;-81
2023/10/12 16:37:59;;;;;;;2.80;2.42;;;;;;;30.35;27.63;100421.03;10293737;28;96638;-81
2023/10/12 16:43:07;;;;;;;4.00;2.40;;;;;;;30.08;27.83;100433.25;10294020;28;97190;-81
2023/10/12 16:48:11;;;;;;;4.22;2.30;;;;;;;29.93;27.59;100434.19;10294335;28;96964;-81
2023/10/12 16:53:16;;;;;;;;;;;;;;;29.79;27.94;100443.13;10294834;28;96954;-81
2023/10/12 16:58:20;;;;;;;4.07;1.90;;;;;;;29.62;27.04;100442.38;10294530;28;96695;-81
2023/10/12 17:03:24;;;;;;;5.18;2.30;;;;;;;29.53;26.96;100442.56;10294017;28;97040;-81
2023/10/12 17:08:30;;;;;;;3.22;2.20;;;;;;;29.49;27.04;100439.34;10294764;28;97408;-81
2023/10/12 17:13:35;;;;;;;2.80;1.55;;;;;;;29.46;26.76;100442.41;10294418;28;96748;-80
2023/10/12 17:18:41;;;;;;;3.58;2.05;;;;;;;29.32;26.88;100445.00;10293586;28;96860;-81
2023/10/12 17:23:46;;;;;;;2.58;1.77;;;;;;;29.25;26.81;100449.44;10294174;28;97131;-80
2023/10/12 17:28:52;;;;;;;2.90;1.70;;;;;;;29.08;27.38;100454.09;10292759;28;96888;-80
2023/10/12 17:33:55;;;;;;;;;;;;;;;28.88;28.82;100459.00;10293885;28;96776;-80
2023/10/12 17:39:00;;;;;;;2.50;1.80;;;;;;;28.73;28.33;100468.88;10293739;28;96949;-80
2023/10/12 17:44:03;;;;;;;2.20;1.70;;;;;;;28.57;28.67;100468.88;10333462;28;97141;-80
2023/10/12 17:49:06;;;;;;;2.47;1.70;;;;;;;28.41;29.07;100476.16;10334142;28;97158;-80
2023/10/12 17:54:12;;;;;;;3.47;2.05;;;;;;;28.04;29.59;100479.31;10320725;28;97581;-80
2023/10/12 17:59:16;;;;;;;3.15;2.00;;;;;;;27.87;29.72;100483.00;10293844;28;97307;-80
2023/10/12 18:04:22;;;;;;;4.07;2.05;;;;;;;27.65;30.11;100495.22;10300250;28;97717;-80
2023/10/12 18:09:31;;;;;;;2.78;1.90;;;;;;;27.48;30.72;100490.75;10299497;28;97188;-79
2023/10/12 18:14:38;;;;;;;3.03;2.00;;;;;;;27.19;30.51;100497.53;10311498;28;97350;-80
2023/10/12 18:19:43;;;;;;;2.35;1.63;;;;;;;27.05;30.95;100498.13;10339344;28;97560;-80
2023/10/12 18:24:47;;;;;;;2.85;1.70;;;;;;;26.96;30.87;100506.16;10340338;28;96702;-80
2023/10/12 18:29:52;;;;;;;2.50;1.70;;;;;;;26.82;31.05;100503.19;10339940;28;96737;-80
2023/10/12 18:34:56;;;;;;;3.90;2.30;;;;;;;26.66;31.21;100512.00;10338809;28;96791;-79
2023/10/12 18:40:00;;;;;;;3.13;2.30;;;;;;;26.56;32.11;100505.00;10340041;28;97228;-80
2023/10/12 18:45:05;;;;;;;3.83;2.15;;;;;;;26.46;32.18;100494.31;10339357;28;97100;-79
2023/10/12 18:50:10;;;;;;;2.38;1.90;;;;;;;26.35;32.39;100505.31;10338491;28;97202;-80
2023/10/12 18:55:17;;;;;;;3.05;1.88;;;;;;;26.44;32.03;100503.56;10299683;28;96754;-79
2023/10/12 19:00:22;;;;;;;2.40;1.80;;;;;;;26.42;32.31;100497.50;10298151;28;96966;-80
2023/10/12 19:05:25;;;;;;;4.10;2.30;;;;;;;26.25;32.78;100491.03;10298492;28;96937;-79
2023/10/12 19:15:38;;;;;;;2.95;2.00;;;;;;;26.00;33.49;100491.81;10211403;28;97200;-79
2023/10/12 19:20:42;;;;;;;2.85;1.95;;;;;;;25.97;33.59;100494.81;10216239;28;96660;-79
2023/10/12 19:25:50;;;;;;;4.10;2.17;;;;;;;25.88;33.86;100487.66;10216859;28;96913;-79
2023/10/12 19:30:56;;;;;;;3.58;2.40;;;;;;;25.89;34.53;100494.72;10215833;28;97651;-79
2023/10/12 19:36:01;;;;;;;5.35;2.35;;;;;;;25.94;34.66;100497.81;10215919;28;96718;-79
2023/10/12 19:41:05;;;;;;;3.97;2.60;;;;;;;25.76;35.36;100500.47;10215817;28;97352;-80
2023/10/12 19:46:10;;;;;;;3.83;2.45;;;;;;;25.88;35.13;100501.97;10216477;28;97590;-80
2023/10/12 19:51:16;;;;;;;5.65;3.10;;;;;;;25.67;35.95;100508.59;10215359;28;96699;-79
2023/10/12 19:56:21;;;;;;;3.63;2.50;;;;;;;25.59;36.22;100505.78;10215637;28;96681;-79
2023/10/12 20:01:26;;;;;;;4.07;2.88;;;;;;;25.44;36.64;100508.16;10214418;28;97536;-79
2023/10/12 20:06:30;;;;;;;3.65;2.42;;;;;;;25.42;36.86;100503.91;10214952;28;96868;-79
2023/10/12 20:11:33;;;;;;;3.93;2.90;;;;;;;25.36;36.82;100516.16;10214238;28;97677;-79
2023/10/12 20:16:39;;;;;;;4.10;2.20;;;;;;;25.11;37.43;100522.19;10215265;28;96749;-79
2023/10/12 20:21:44;;;;;;;4.93;2.55;;;;;;;25.13;37.34;100516.63;10214082;28;97652;-79
2023/10/12 20:26:49;;;;;;;3.78;2.40;;;;;;;25.09;37.91;100516.09;10213893;28;97180;-79
2023/10/12 20:31:55;;;;;;;3.40;2.38;;;;;;;24.94;38.36;100539.06;10214441;28;96869;-79
2023/10/12 20:36:58;;;;;;;3.80;2.55;;;;;;;24.83;38.48;100540.06;10215036;28;97121;-79
2023/10/12 20:42:03;;;;;;;3.53;2.20;;;;;;;24.53;39.04;100552.84;10213724;28;96706;-79
2023/10/12 20:47:08;;;;;;;4.43;2.45;;;;;;;24.43;38.98;100555.53;10214273;28;96971;-79
2023/10/12 20:52:13;;;;;;;3.88;2.30;;;;;;;24.44;39.42;100553.69;10212458;28;96936;-79
2023/10/12 20:57:17;;;;;;;3.50;2.30;;;;;;;24.42;39.58;100555.69;10213178;28;96860;-79
2023/10/12 21:02:22;;;;;;;;;;;;;;;24.11;40.78;100560.28;10214165;28;96896;-79
2023/10/12 21:07:28;;;;;;;6.40;2.67;;;;;;;23.90;40.06;100556.84;10213602;28;96812;-79
2023/10/12 21:12:33;;;;;;;3.67;2.38;;;;;;;23.90;40.51;100558.69;10213003;28;96694;-79
2023/10/12 21:17:39;;;;;;;3.85;2.17;;;;;;;23.71;41.00;100564.84;10212842;28;96754;-79
2023/10/12 21:22:52;;;;;;;4.88;2.22;;;;;;;23.78;40.75;100557.94;10213616;28;97129;-79
2023/10/12 21:27:57;;;;;;;3.92;2.08;;;;;;;23.65;40.50;100539.38;10213463;28;97196;-80
2023/10/12 21:33:10;;;;;;;4.43;2.35;;;;;;;23.24;43.09;100536.78;10212355;28;97263;-81
2023/10/12 21:38:15;;;;;;;3.30;2.28;;;;;;;23.27;42.31;100527.56;10220241;28;97549;-80
2023/10/12 21:43:18;;;;;;;3.72;2.40;;;;;;;23.34;41.33;100537.66;10218522;28;96738;-80
2023/10/12 21:48:23;;;;;;;4.03;2.25;;;;;;;23.35;41.24;100534.00;10219222;28;96877;-80
2023/10/12 21:53:29;;;;;;;3.53;2.20;;;;;;;23.43;40.89;100541.38;10218972;28;96676;-79
2023/10/12 21:58:34;;;;;;;2.55;2.05;;;;;;;23.51;41.63;100539.72;10219789;28;96808;-79
2023/10/12 22:03:40;;;;;;;5.30;2.10;;;;;;;23.40;42.81;100533.59;10218763;28;96807;-79
2023/10/12 22:08:44;;;;;;;3.55;2.42;;;;;;;23.57;42.72;100541.91;10218799;28;97364;-80
2023/10/12 22:13:54;;;;;;;5.03;2.70;;;;;;;23.48;42.98;100528.38;10218661;28;97188;-80
2023/10/12 22:18:59;;;;;;;3.78;2.28;;;;;;;23.53;43.23;100534.19;10218987;28;96866;-80
2023/10/12 22:24:04;;;;;;;3.00;2.15;;;;;;;23.53;43.30;100542.25;10218135;28;97071;-79
2023/10/12 22:29:08;;;;;;;2.87;2.20;;;;;;;23.45;44.12;100537.59;10218452;28;97292;-80
2023/10/12 22:34:15;;;;;;;3.10;2.47;;;;;;;23.44;44.37;100537.72;10216802;28;96720;-79
2023/10/12 22:39:23;;;;;;;4.00;2.70;;;;;;;23.34;44.85;100542.16;10217576;28;96661;-79
2023/10/12 22:44:32;;;;;;;3.03;2.35;;;;;;;23.28;44.92;100540.03;10217526;28;96981;-79
2023/10/12 22:49:38;;;;;;;4.20;2.65;;;;;;;23.27;45.00;100531.13;10217160;28;97443;-79
2023/10/12 22:54:42;;;;;;;4.75;2.60;;;;;;;23.13;45.01;100544.06;10217314;28;97084;-79
2023/10/12 22:59:46;;;;;;;3.20;1.90;;;;;;;23.10;44.87;100545.16;10217530;28;97183;-79
2023/10/12 23:04:51;;;;;;;3.07;2.53;;;;;;;23.13;44.92;100539.53;10217479;28;97246;-80
2023/10/12 23:10:04;;;;;;;3.70;2.35;;;;;;;22.98;45.32;100546.22;10217440;28;97291;-79
2023/10/12 23:15:11;;;;;;;3.07;2.30;;;;;;;23.03;45.34;100541.31;10216124;28;97412;-80
2023/10/12 23:20:35;;;;;;;4.65;2.72;;;;;;;22.97;45.91;100544.53;10216894;28;97116;-80
2023/10/12 23:25:44;;;;;;;4.82;2.70;;;;;;;22.98;46.25;100542.69;10215301;28;96666;-79
2023/10/12 23:30:51;;;;;;;3.85;2.40;;;;;;;22.95;46.36;100535.78;10215909;28;97308;-79
2023/10/12 23:35:57;;;;;;;5.05;2.70;;;;;;;22.95;46.50;100541.13;10216094;28;97349;-79
2023/10/12 23:41:18;;;;;;;3.45;2.35;;;;;;;22.91;46.26;100526.28;10254935;28;97059;-80
2023/10/12 23:46:25;;;;;;;6.43;2.85;;;;;;;22.61;46.73;100529.72;10256062;28;96781;-80
2023/10/12 23:51:32;;;;;;;4.63;2.60;;;;;;;22.75;47.07;100525.84;10244005;28;97132;-79
2023/10/12 23:56:40;;;;;;;3.17;2.20;;;;;;;22.45;47.75;100521.25;10215017;28;96726;-79
